sensor_id;sensor_type;location;lat;lon;timestamp;P1;durP1;ratioP1;P2;durP2;ratioP2
22378;SDS011;11357;49.990;7.370;2023-04-07T00:00:17;731.70;;;643.73;;
22378;SDS011;11357;49.990;7.370;2023-04-07T00:02:43;827.30;;;691.80;;
22378;SDS011;11357;49.990;7.370;2023-04-07T00:05:08;728.87;;;610.53;;
22378;SDS011;11357;49.990;7.370;2023-04-07T00:07:34;792.10;;;660.60;;
22378;SDS011;11357;49.990;7.370;2023-04-07T00:10:00;734.73;;;618.23;;
22378;SDS011;11357;49.990;7.370;2023-04-07T00:12:26;732.17;;;628.20;;
22378;SDS011;11357;49.990;7.370;2023-04-07T00:14:51;732.77;;;638.67;;
22378;SDS011;11357;49.990;7.370;2023-04-07T00:17:17;632.13;;;571.03;;
22378;SDS011;11357;49.990;7.370;2023-04-07T00:19:42;681.43;;;610.20;;
22378;SDS011;11357;49.990;7.370;2023-04-07T00:22:08;639.33;;;570.10;;
22378;SDS011;11357;49.990;7.370;2023-04-07T00:24:34;518.43;;;473.20;;
22378;SDS011;11357;49.990;7.370;2023-04-07T00:27:00;646.03;;;565.83;;
22378;SDS011;11357;49.990;7.370;2023-04-07T00:29:26;651.83;;;566.83;;
22378;SDS011;11357;49.990;7.370;2023-04-07T00:31:52;545.03;;;489.50;;
22378;SDS011;11357;49.990;7.370;2023-04-07T00:34:18;546.87;;;493.50;;
22378;SDS011;11357;49.990;7.370;2023-04-07T00:36:44;592.30;;;530.80;;
22378;SDS011;11357;49.990;7.370;2023-04-07T00:39:15;516.40;;;470.27;;
22378;SDS011;11357;49.990;7.370;2023-04-07T00:41:44;585.70;;;527.47;;
22378;SDS011;11357;49.990;7.370;2023-04-07T00:44:10;578.93;;;519.97;;
22378;SDS011;11357;49.990;7.370;2023-04-07T00:46:36;535.03;;;482.73;;
22378;SDS011;11357;49.990;7.370;2023-04-07T00:49:02;602.30;;;533.50;;
22378;SDS011;11357;49.990;7.370;2023-04-07T00:51:28;634.50;;;554.97;;
22378;SDS011;11357;49.990;7.370;2023-04-07T00:53:55;666.50;;;601.43;;
22378;SDS011;11357;49.990;7.370;2023-04-07T00:56:21;652.37;;;583.60;;
22378;SDS011;11357;49.990;7.370;2023-04-07T00:58:47;772.57;;;666.03;;
22378;SDS011;11357;49.990;7.370;2023-04-07T01:01:24;813.20;;;680.23;;
22378;SDS011;11357;49.990;7.370;2023-04-07T01:03:57;611.27;;;550.00;;
22378;SDS011;11357;49.990;7.370;2023-04-07T01:06:33;666.77;;;589.23;;
22378;SDS011;11357;49.990;7.370;2023-04-07T01:09:04;660.30;;;572.40;;
22378;SDS011;11357;49.990;7.370;2023-04-07T01:14:23;641.43;;;558.20;;
22378;SDS011;11357;49.990;7.370;2023-04-07T01:16:51;387.73;;;351.63;;
22378;SDS011;11357;49.990;7.370;2023-04-07T01:19:32;588.00;;;525.73;;
22378;SDS011;11357;49.990;7.370;2023-04-07T01:22:01;636.73;;;554.13;;
22378;SDS011;11357;49.990;7.370;2023-04-07T01:27:24;589.93;;;530.27;;
22378;SDS011;11357;49.990;7.370;2023-04-07T01:30:14;511.03;;;462.27;;
22378;SDS011;11357;49.990;7.370;2023-04-07T01:32:42;535.63;;;482.60;;
22378;SDS011;11357;49.990;7.370;2023-04-07T01:35:11;538.23;;;487.80;;
22378;SDS011;11357;49.990;7.370;2023-04-07T01:37:38;566.70;;;509.10;;
22378;SDS011;11357;49.990;7.370;2023-04-07T01:40:04;601.50;;;532.90;;
22378;SDS011;11357;49.990;7.370;2023-04-07T01:42:32;577.53;;;519.20;;
22378;SDS011;11357;49.990;7.370;2023-04-07T01:44:58;628.60;;;558.50;;
22378;SDS011;11357;49.990;7.370;2023-04-07T01:47:26;596.50;;;536.30;;
22378;SDS011;11357;49.990;7.370;2023-04-07T01:49:55;603.07;;;534.43;;
22378;SDS011;11357;49.990;7.370;2023-04-07T01:52:23;546.23;;;491.20;;
22378;SDS011;11357;49.990;7.370;2023-04-07T01:54:52;554.57;;;500.23;;
22378;SDS011;11357;49.990;7.370;2023-04-07T01:57:18;609.57;;;530.00;;
22378;SDS011;11357;49.990;7.370;2023-04-07T01:59:45;565.03;;;506.27;;
22378;SDS011;11357;49.990;7.370;2023-04-07T02:02:11;569.97;;;512.33;;
22378;SDS011;11357;49.990;7.370;2023-04-07T02:04:39;537.50;;;482.63;;
22378;SDS011;11357;49.990;7.370;2023-04-07T02:07:23;416.67;;;378.47;;
22378;SDS011;11357;49.990;7.370;2023-04-07T02:09:53;553.20;;;494.47;;
22378;SDS011;11357;49.990;7.370;2023-04-07T02:12:22;552.07;;;496.50;;
22378;SDS011;11357;49.990;7.370;2023-04-07T02:14:52;500.53;;;453.50;;
22378;SDS011;11357;49.990;7.370;2023-04-07T02:17:19;574.27;;;514.53;;
22378;SDS011;11357;49.990;7.370;2023-04-07T02:19:47;594.90;;;532.23;;
22378;SDS011;11357;49.990;7.370;2023-04-07T02:22:15;721.83;;;607.90;;
22378;SDS011;11357;49.990;7.370;2023-04-07T02:24:42;676.43;;;578.67;;
22378;SDS011;11357;49.990;7.370;2023-04-07T02:27:07;662.03;;;587.73;;
22378;SDS011;11357;49.990;7.370;2023-04-07T02:29:33;618.57;;;544.43;;
22378;SDS011;11357;49.990;7.370;2023-04-07T02:31:59;587.97;;;527.83;;
22378;SDS011;11357;49.990;7.370;2023-04-07T02:34:24;583.23;;;523.17;;
22378;SDS011;11357;49.990;7.370;2023-04-07T02:36:50;607.87;;;539.47;;
22378;SDS011;11357;49.990;7.370;2023-04-07T02:39:16;626.83;;;553.70;;
22378;SDS011;11357;49.990;7.370;2023-04-07T02:41:42;657.07;;;561.27;;
22378;SDS011;11357;49.990;7.370;2023-04-07T02:44:07;612.67;;;548.57;;
22378;SDS011;11357;49.990;7.370;2023-04-07T02:46:33;587.63;;;530.47;;
22378;SDS011;11357;49.990;7.370;2023-04-07T02:48:59;630.07;;;561.47;;
22378;SDS011;11357;49.990;7.370;2023-04-07T02:51:24;573.43;;;516.53;;
22378;SDS011;11357;49.990;7.370;2023-04-07T02:53:51;577.63;;;519.07;;
22378;SDS011;11357;49.990;7.370;2023-04-07T02:56:16;620.17;;;545.77;;
22378;SDS011;11357;49.990;7.370;2023-04-07T02:58:42;591.63;;;532.27;;
22378;SDS011;11357;49.990;7.370;2023-04-07T03:01:08;620.23;;;555.23;;
22378;SDS011;11357;49.990;7.370;2023-04-07T03:03:33;649.27;;;575.13;;
22378;SDS011;11357;49.990;7.370;2023-04-07T03:05:59;667.93;;;578.77;;
22378;SDS011;11357;49.990;7.370;2023-04-07T03:08:25;685.83;;;587.37;;
22378;SDS011;11357;49.990;7.370;2023-04-07T03:10:51;671.27;;;593.40;;
22378;SDS011;11357;49.990;7.370;2023-04-07T03:13:17;740.37;;;632.17;;
22378;SDS011;11357;49.990;7.370;2023-04-07T03:15:43;676.87;;;600.70;;
22378;SDS011;11357;49.990;7.370;2023-04-07T03:18:09;709.63;;;617.27;;
22378;SDS011;11357;49.990;7.370;2023-04-07T03:20:35;725.10;;;610.23;;
22378;SDS011;11357;49.990;7.370;2023-04-07T03:23:01;837.10;;;665.20;;
22378;SDS011;11357;49.990;7.370;2023-04-07T03:25:27;700.07;;;623.60;;
22378;SDS011;11357;49.990;7.370;2023-04-07T03:27:53;796.87;;;663.23;;
22378;SDS011;11357;49.990;7.370;2023-04-07T03:30:19;810.20;;;668.87;;
22378;SDS011;11357;49.990;7.370;2023-04-07T03:32:45;898.03;;;688.60;;
22378;SDS011;11357;49.990;7.370;2023-04-07T03:35:11;859.03;;;679.23;;
22378;SDS011;11357;49.990;7.370;2023-04-07T03:37:36;792.13;;;658.97;;
22378;SDS011;11357;49.990;7.370;2023-04-07T03:40:02;681.07;;;597.40;;
22378;SDS011;11357;49.990;7.370;2023-04-07T03:42:28;732.57;;;625.33;;
22378;SDS011;11357;49.990;7.370;2023-04-07T03:44:53;918.47;;;693.00;;
22378;SDS011;11357;49.990;7.370;2023-04-07T03:47:19;927.90;;;681.90;;
22378;SDS011;11357;49.990;7.370;2023-04-07T03:49:46;714.73;;;627.67;;
22378;SDS011;11357;49.990;7.370;2023-04-07T03:52:12;823.50;;;632.37;;
22378;SDS011;11357;49.990;7.370;2023-04-07T03:54:37;899.30;;;699.77;;
22378;SDS011;11357;49.990;7.370;2023-04-07T03:57:03;1024.83;;;723.37;;
22378;SDS011;11357;49.990;7.370;2023-04-07T03:59:29;994.73;;;726.67;;
22378;SDS011;11357;49.990;7.370;2023-04-07T04:01:54;1126.43;;;763.53;;
22378;SDS011;11357;49.990;7.370;2023-04-07T04:04:20;980.23;;;713.97;;
22378;SDS011;11357;49.990;7.370;2023-04-07T04:06:48;1005.37;;;715.83;;
22378;SDS011;11357;49.990;7.370;2023-04-07T04:09:14;956.07;;;679.67;;
22378;SDS011;11357;49.990;7.370;2023-04-07T04:11:40;1033.17;;;710.47;;
22378;SDS011;11357;49.990;7.370;2023-04-07T04:14:06;799.87;;;666.30;;
22378;SDS011;11357;49.990;7.370;2023-04-07T04:16:32;1033.13;;;730.40;;
22378;SDS011;11357;49.990;7.370;2023-04-07T04:18:59;787.63;;;648.97;;
22378;SDS011;11357;49.990;7.370;2023-04-07T04:21:25;982.30;;;744.27;;
22378;SDS011;11357;49.990;7.370;2023-04-07T04:23:51;893.10;;;652.27;;
22378;SDS011;11357;49.990;7.370;2023-04-07T04:26:17;963.10;;;718.37;;
22378;SDS011;11357;49.990;7.370;2023-04-07T04:28:43;1033.27;;;717.83;;
22378;SDS011;11357;49.990;7.370;2023-04-07T04:31:09;1096.43;;;732.90;;
22378;SDS011;11357;49.990;7.370;2023-04-07T04:33:35;982.13;;;703.30;;
22378;SDS011;11357;49.990;7.370;2023-04-07T04:36:00;951.17;;;703.07;;
22378;SDS011;11357;49.990;7.370;2023-04-07T04:38:26;839.37;;;649.20;;
22378;SDS011;11357;49.990;7.370;2023-04-07T04:40:51;907.87;;;688.63;;
22378;SDS011;11357;49.990;7.370;2023-04-07T04:43:17;998.97;;;715.83;;
22378;SDS011;11357;49.990;7.370;2023-04-07T04:45:43;918.33;;;703.60;;
22378;SDS011;11357;49.990;7.370;2023-04-07T04:48:08;1051.93;;;734.30;;
22378;SDS011;11357;49.990;7.370;2023-04-07T04:50:35;905.87;;;698.90;;
22378;SDS011;11357;49.990;7.370;2023-04-07T04:53:01;932.13;;;708.80;;
22378;SDS011;11357;49.990;7.370;2023-04-07T04:55:26;936.07;;;709.13;;
22378;SDS011;11357;49.990;7.370;2023-04-07T04:57:53;751.67;;;616.67;;
22378;SDS011;11357;49.990;7.370;2023-04-07T05:00:19;952.07;;;698.13;;
22378;SDS011;11357;49.990;7.370;2023-04-07T05:02:45;972.13;;;714.93;;
22378;SDS011;11357;49.990;7.370;2023-04-07T05:05:11;894.60;;;685.03;;
22378;SDS011;11357;49.990;7.370;2023-04-07T05:07:36;973.67;;;729.90;;
22378;SDS011;11357;49.990;7.370;2023-04-07T05:10:04;1000.60;;;742.00;;
22378;SDS011;11357;49.990;7.370;2023-04-07T05:12:31;1106.20;;;754.77;;
22378;SDS011;11357;49.990;7.370;2023-04-07T05:14:57;925.20;;;689.53;;
22378;SDS011;11357;49.990;7.370;2023-04-07T05:17:22;927.57;;;701.83;;
22378;SDS011;11357;49.990;7.370;2023-04-07T05:19:48;1021.87;;;708.40;;
22378;SDS011;11357;49.990;7.370;2023-04-07T05:22:13;859.20;;;646.00;;
22378;SDS011;11357;49.990;7.370;2023-04-07T05:24:40;938.73;;;706.00;;
22378;SDS011;11357;49.990;7.370;2023-04-07T05:27:05;949.43;;;719.67;;
22378;SDS011;11357;49.990;7.370;2023-04-07T05:29:31;1017.97;;;726.60;;
22378;SDS011;11357;49.990;7.370;2023-04-07T05:31:57;999.77;;;736.87;;
22378;SDS011;11357;49.990;7.370;2023-04-07T05:34:22;977.37;;;724.07;;
22378;SDS011;11357;49.990;7.370;2023-04-07T05:36:48;956.27;;;710.90;;
22378;SDS011;11357;49.990;7.370;2023-04-07T05:39:14;953.07;;;702.07;;
22378;SDS011;11357;49.990;7.370;2023-04-07T05:41:39;1054.47;;;731.60;;
22378;SDS011;11357;49.990;7.370;2023-04-07T05:44:06;945.10;;;706.43;;
22378;SDS011;11357;49.990;7.370;2023-04-07T05:46:31;892.10;;;671.53;;
22378;SDS011;11357;49.990;7.370;2023-04-07T05:48:57;993.93;;;700.10;;
22378;SDS011;11357;49.990;7.370;2023-04-07T05:51:23;863.53;;;660.13;;
22378;SDS011;11357;49.990;7.370;2023-04-07T05:53:48;953.30;;;707.90;;
22378;SDS011;11357;49.990;7.370;2023-04-07T05:56:14;1069.50;;;733.97;;
22378;SDS011;11357;49.990;7.370;2023-04-07T05:58:40;1014.17;;;713.57;;
22378;SDS011;11357;49.990;7.370;2023-04-07T06:01:05;930.43;;;717.37;;
22378;SDS011;11357;49.990;7.370;2023-04-07T06:03:31;934.93;;;670.00;;
22378;SDS011;11357;49.990;7.370;2023-04-07T06:05:57;990.10;;;722.60;;
22378;SDS011;11357;49.990;7.370;2023-04-07T06:08:22;962.27;;;703.87;;
22378;SDS011;11357;49.990;7.370;2023-04-07T06:10:48;1031.77;;;726.37;;
22378;SDS011;11357;49.990;7.370;2023-04-07T06:13:14;812.87;;;674.10;;
22378;SDS011;11357;49.990;7.370;2023-04-07T06:15:39;952.00;;;716.23;;
22378;SDS011;11357;49.990;7.370;2023-04-07T06:18:05;797.40;;;648.33;;
22378;SDS011;11357;49.990;7.370;2023-04-07T06:20:31;836.80;;;678.03;;
22378;SDS011;11357;49.990;7.370;2023-04-07T06:22:56;855.17;;;660.10;;
22378;SDS011;11357;49.990;7.370;2023-04-07T06:25:22;776.57;;;618.17;;
22378;SDS011;11357;49.990;7.370;2023-04-07T06:27:47;782.40;;;640.60;;
22378;SDS011;11357;49.990;7.370;2023-04-07T06:30:13;783.63;;;627.67;;
22378;SDS011;11357;49.990;7.370;2023-04-07T06:32:40;838.87;;;661.30;;
22378;SDS011;11357;49.990;7.370;2023-04-07T06:35:05;779.27;;;634.90;;
22378;SDS011;11357;49.990;7.370;2023-04-07T06:37:31;779.00;;;659.80;;
22378;SDS011;11357;49.990;7.370;2023-04-07T06:39:57;825.97;;;663.00;;
22378;SDS011;11357;49.990;7.370;2023-04-07T06:42:23;908.23;;;684.13;;
22378;SDS011;11357;49.990;7.370;2023-04-07T06:44:48;796.33;;;656.30;;
22378;SDS011;11357;49.990;7.370;2023-04-07T06:47:14;797.40;;;636.40;;
22378;SDS011;11357;49.990;7.370;2023-04-07T06:49:40;773.40;;;655.60;;
22378;SDS011;11357;49.990;7.370;2023-04-07T06:52:05;725.70;;;616.60;;
22378;SDS011;11357;49.990;7.370;2023-04-07T06:54:31;775.33;;;628.23;;
22378;SDS011;11357;49.990;7.370;2023-04-07T06:56:57;670.50;;;583.83;;
22378;SDS011;11357;49.990;7.370;2023-04-07T06:59:22;702.90;;;608.43;;
22378;SDS011;11357;49.990;7.370;2023-04-07T07:01:48;680.90;;;585.33;;
22378;SDS011;11357;49.990;7.370;2023-04-07T07:04:14;697.53;;;606.97;;
22378;SDS011;11357;49.990;7.370;2023-04-07T07:06:39;651.20;;;575.27;;
22378;SDS011;11357;49.990;7.370;2023-04-07T07:09:05;617.70;;;551.73;;
22378;SDS011;11357;49.990;7.370;2023-04-07T07:11:31;690.43;;;600.57;;
22378;SDS011;11357;49.990;7.370;2023-04-07T07:13:56;666.63;;;584.67;;
22378;SDS011;11357;49.990;7.370;2023-04-07T07:16:22;755.83;;;619.53;;
22378;SDS011;11357;49.990;7.370;2023-04-07T07:18:48;661.90;;;591.63;;
22378;SDS011;11357;49.990;7.370;2023-04-07T07:21:15;649.97;;;564.83;;
22378;SDS011;11357;49.990;7.370;2023-04-07T07:23:41;693.13;;;604.70;;
22378;SDS011;11357;49.990;7.370;2023-04-07T07:26:07;686.63;;;598.37;;
22378;SDS011;11357;49.990;7.370;2023-04-07T07:28:33;791.37;;;608.80;;
22378;SDS011;11357;49.990;7.370;2023-04-07T07:30:58;702.13;;;586.33;;
22378;SDS011;11357;49.990;7.370;2023-04-07T07:33:24;776.77;;;629.77;;
22378;SDS011;11357;49.990;7.370;2023-04-07T07:35:50;754.00;;;628.77;;
22378;SDS011;11357;49.990;7.370;2023-04-07T07:38:16;818.90;;;665.00;;
22378;SDS011;11357;49.990;7.370;2023-04-07T07:40:42;690.40;;;615.30;;
22378;SDS011;11357;49.990;7.370;2023-04-07T07:43:07;663.60;;;589.37;;
22378;SDS011;11357;49.990;7.370;2023-04-07T07:45:33;659.13;;;589.57;;
22378;SDS011;11357;49.990;7.370;2023-04-07T07:47:58;616.27;;;552.37;;
22378;SDS011;11357;49.990;7.370;2023-04-07T07:50:24;695.07;;;608.93;;
22378;SDS011;11357;49.990;7.370;2023-04-07T07:52:50;769.83;;;641.17;;
22378;SDS011;11357;49.990;7.370;2023-04-07T07:55:16;703.73;;;609.77;;
22378;SDS011;11357;49.990;7.370;2023-04-07T07:57:41;715.60;;;600.03;;
22378;SDS011;11357;49.990;7.370;2023-04-07T08:00:07;669.97;;;586.87;;
22378;SDS011;11357;49.990;7.370;2023-04-07T08:02:33;670.93;;;586.50;;
22378;SDS011;11357;49.990;7.370;2023-04-07T08:05:00;699.77;;;592.93;;
22378;SDS011;11357;49.990;7.370;2023-04-07T08:07:26;778.17;;;652.77;;
22378;SDS011;11357;49.990;7.370;2023-04-07T08:09:52;829.63;;;658.47;;
22378;SDS011;11357;49.990;7.370;2023-04-07T08:12:17;810.07;;;641.17;;
22378;SDS011;11357;49.990;7.370;2023-04-07T08:14:43;728.10;;;619.23;;
22378;SDS011;11357;49.990;7.370;2023-04-07T08:17:09;804.37;;;650.77;;
22378;SDS011;11357;49.990;7.370;2023-04-07T08:19:35;704.83;;;617.47;;
22378;SDS011;11357;49.990;7.370;2023-04-07T08:22:00;760.47;;;627.13;;
22378;SDS011;11357;49.990;7.370;2023-04-07T08:24:27;848.17;;;685.90;;
22378;SDS011;11357;49.990;7.370;2023-04-07T08:26:53;648.73;;;584.60;;
22378;SDS011;11357;49.990;7.370;2023-04-07T08:29:18;614.43;;;551.57;;
22378;SDS011;11357;49.990;7.370;2023-04-07T08:31:44;596.50;;;535.63;;
22378;SDS011;11357;49.990;7.370;2023-04-07T08:34:10;611.07;;;539.80;;
22378;SDS011;11357;49.990;7.370;2023-04-07T08:36:37;657.03;;;589.23;;
22378;SDS011;11357;49.990;7.370;2023-04-07T08:39:03;720.87;;;604.03;;
22378;SDS011;11357;49.990;7.370;2023-04-07T08:41:32;731.87;;;630.40;;
22378;SDS011;11357;49.990;7.370;2023-04-07T08:44:01;743.33;;;633.63;;
22378;SDS011;11357;49.990;7.370;2023-04-07T08:46:28;788.03;;;657.70;;
22378;SDS011;11357;49.990;7.370;2023-04-07T08:48:55;913.87;;;721.80;;
22378;SDS011;11357;49.990;7.370;2023-04-07T08:51:29;907.40;;;717.37;;
22378;SDS011;11357;49.990;7.370;2023-04-07T08:54:06;955.83;;;726.67;;
22378;SDS011;11357;49.990;7.370;2023-04-07T08:56:38;693.23;;;612.33;;
22378;SDS011;11357;49.990;7.370;2023-04-07T08:59:08;821.13;;;661.33;;
22378;SDS011;11357;49.990;7.370;2023-04-07T09:01:36;569.23;;;515.93;;
22378;SDS011;11357;49.990;7.370;2023-04-07T09:04:03;618.00;;;528.77;;
22378;SDS011;11357;49.990;7.370;2023-04-07T09:06:30;490.83;;;442.30;;
22378;SDS011;11357;49.990;7.370;2023-04-07T09:08:57;774.37;;;572.40;;
22378;SDS011;11357;49.990;7.370;2023-04-07T09:11:23;579.60;;;524.00;;
22378;SDS011;11357;49.990;7.370;2023-04-07T09:13:49;323.50;;;299.23;;
22378;SDS011;11357;49.990;7.370;2023-04-07T09:16:15;581.97;;;516.00;;
22378;SDS011;11357;49.990;7.370;2023-04-07T09:18:41;628.40;;;487.90;;
22378;SDS011;11357;49.990;7.370;2023-04-07T09:21:08;466.20;;;424.03;;
22378;SDS011;11357;49.990;7.370;2023-04-07T09:23:38;541.97;;;486.90;;
22378;SDS011;11357;49.990;7.370;2023-04-07T09:28:51;371.40;;;339.50;;
22378;SDS011;11357;49.990;7.370;2023-04-07T09:31:23;540.70;;;487.70;;
22378;SDS011;11357;49.990;7.370;2023-04-07T09:34:24;257.57;;;235.17;;
22378;SDS011;11357;49.990;7.370;2023-04-07T09:36:55;444.67;;;408.03;;
22378;SDS011;11357;49.990;7.370;2023-04-07T09:39:21;395.10;;;362.07;;
22378;SDS011;11357;49.990;7.370;2023-04-07T09:41:47;518.57;;;471.40;;
22378;SDS011;11357;49.990;7.370;2023-04-07T09:44:13;297.80;;;274.43;;
22378;SDS011;11357;49.990;7.370;2023-04-07T09:46:58;383.30;;;352.33;;
22378;SDS011;11357;49.990;7.370;2023-04-07T09:49:24;129.37;;;119.27;;
22378;SDS011;11357;49.990;7.370;2023-04-07T09:52:02;282.67;;;261.17;;
22378;SDS011;11357;49.990;7.370;2023-04-07T09:54:38;247.07;;;228.80;;
22378;SDS011;11357;49.990;7.370;2023-04-07T09:57:09;434.77;;;398.20;;
22378;SDS011;11357;49.990;7.370;2023-04-07T09:59:36;285.67;;;262.67;;
22378;SDS011;11357;49.990;7.370;2023-04-07T10:02:04;212.80;;;196.57;;
22378;SDS011;11357;49.990;7.370;2023-04-07T10:04:30;153.07;;;141.43;;
22378;SDS011;11357;49.990;7.370;2023-04-07T10:06:56;284.37;;;263.67;;
22378;SDS011;11357;49.990;7.370;2023-04-07T10:09:23;255.27;;;237.30;;
22378;SDS011;11357;49.990;7.370;2023-04-07T10:11:51;337.20;;;311.37;;
22378;SDS011;11357;49.990;7.370;2023-04-07T10:14:18;334.47;;;309.53;;
22378;SDS011;11357;49.990;7.370;2023-04-07T10:16:45;285.07;;;264.70;;
22378;SDS011;11357;49.990;7.370;2023-04-07T10:19:12;155.83;;;144.10;;
22378;SDS011;11357;49.990;7.370;2023-04-07T10:21:39;323.27;;;295.53;;
22378;SDS011;11357;49.990;7.370;2023-04-07T10:26:35;498.20;;;456.43;;
22378;SDS011;11357;49.990;7.370;2023-04-07T10:29:03;441.90;;;401.67;;
22378;SDS011;11357;49.990;7.370;2023-04-07T10:31:34;576.17;;;450.77;;
22378;SDS011;11357;49.990;7.370;2023-04-07T10:34:00;496.90;;;453.83;;
22378;SDS011;11357;49.990;7.370;2023-04-07T10:36:26;451.33;;;415.20;;
22378;SDS011;11357;49.990;7.370;2023-04-07T10:41:40;296.87;;;274.20;;
22378;SDS011;11357;49.990;7.370;2023-04-07T10:44:06;383.70;;;352.40;;
22378;SDS011;11357;49.990;7.370;2023-04-07T10:49:12;389.00;;;356.50;;
22378;SDS011;11357;49.990;7.370;2023-04-07T10:51:39;276.80;;;250.97;;
22378;SDS011;11357;49.990;7.370;2023-04-07T10:54:14;465.17;;;418.57;;
22378;SDS011;11357;49.990;7.370;2023-04-07T10:59:28;334.87;;;307.73;;
22378;SDS011;11357;49.990;7.370;2023-04-07T11:04:39;445.00;;;406.47;;
22378;SDS011;11357;49.990;7.370;2023-04-07T11:07:06;278.97;;;257.37;;
22378;SDS011;11357;49.990;7.370;2023-04-07T11:09:32;171.80;;;158.60;;
22378;SDS011;11357;49.990;7.370;2023-04-07T11:11:58;121.63;;;75.57;;
22378;SDS011;11357;49.990;7.370;2023-04-07T11:16:59;207.27;;;188.80;;
22378;SDS011;11357;49.990;7.370;2023-04-07T11:19:25;148.27;;;137.43;;
22378;SDS011;11357;49.990;7.370;2023-04-07T11:22:12;180.07;;;167.17;;
22378;SDS011;11357;49.990;7.370;2023-04-07T11:24:40;228.83;;;211.97;;
22378;SDS011;11357;49.990;7.370;2023-04-07T11:27:13;259.57;;;240.20;;
22378;SDS011;11357;49.990;7.370;2023-04-07T11:29:40;156.10;;;144.17;;
22378;SDS011;11357;49.990;7.370;2023-04-07T11:32:06;256.63;;;237.80;;
22378;SDS011;11357;49.990;7.370;2023-04-07T11:39:41;193.67;;;179.30;;
22378;SDS011;11357;49.990;7.370;2023-04-07T11:42:07;160.73;;;148.77;;
22378;SDS011;11357;49.990;7.370;2023-04-07T11:44:33;151.67;;;140.43;;
22378;SDS011;11357;49.990;7.370;2023-04-07T11:46:59;140.93;;;130.53;;
22378;SDS011;11357;49.990;7.370;2023-04-07T11:49:27;43.70;;;39.90;;
22378;SDS011;11357;49.990;7.370;2023-04-07T11:52:00;26.90;;;22.80;;
22378;SDS011;11357;49.990;7.370;2023-04-07T11:54:37;155.40;;;142.47;;
22378;SDS011;11357;49.990;7.370;2023-04-07T11:57:06;146.67;;;135.77;;
22378;SDS011;11357;49.990;7.370;2023-04-07T11:59:34;107.40;;;94.50;;
22378;SDS011;11357;49.990;7.370;2023-04-07T12:02:00;127.87;;;82.53;;
22378;SDS011;11357;49.990;7.370;2023-04-07T12:04:26;28.30;;;24.83;;
22378;SDS011;11357;49.990;7.370;2023-04-07T12:06:51;17.53;;;12.93;;
22378;SDS011;11357;49.990;7.370;2023-04-07T12:09:24;49.33;;;45.60;;
22378;SDS011;11357;49.990;7.370;2023-04-07T12:11:55;16.43;;;12.37;;
22378;SDS011;11357;49.990;7.370;2023-04-07T12:14:21;205.90;;;56.70;;
22378;SDS011;11357;49.990;7.370;2023-04-07T12:16:48;16.30;;;13.10;;
22378;SDS011;11357;49.990;7.370;2023-04-07T12:19:14;25.70;;;23.20;;
22378;SDS011;11357;49.990;7.370;2023-04-07T12:21:39;15.83;;;12.77;;
22378;SDS011;11357;49.990;7.370;2023-04-07T12:24:05;20.83;;;18.77;;
22378;SDS011;11357;49.990;7.370;2023-04-07T12:26:30;11.27;;;10.07;;
22378;SDS011;11357;49.990;7.370;2023-04-07T12:28:56;12.40;;;8.70;;
22378;SDS011;11357;49.990;7.370;2023-04-07T12:31:28;13.13;;;9.73;;
22378;SDS011;11357;49.990;7.370;2023-04-07T12:33:56;13.27;;;11.30;;
22378;SDS011;11357;49.990;7.370;2023-04-07T12:36:22;12.93;;;10.23;;
22378;SDS011;11357;49.990;7.370;2023-04-07T12:38:48;11.47;;;8.83;;
22378;SDS011;11357;49.990;7.370;2023-04-07T12:41:14;9.93;;;7.50;;
22378;SDS011;11357;49.990;7.370;2023-04-07T12:43:39;13.43;;;9.73;;
22378;SDS011;11357;49.990;7.370;2023-04-07T12:46:05;17.43;;;15.60;;
22378;SDS011;11357;49.990;7.370;2023-04-07T12:48:31;26.37;;;23.97;;
22378;SDS011;11357;49.990;7.370;2023-04-07T12:50:56;14.97;;;10.80;;
22378;SDS011;11357;49.990;7.370;2023-04-07T12:53:22;26.97;;;24.77;;
22378;SDS011;11357;49.990;7.370;2023-04-07T12:55:48;46.57;;;24.07;;
22378;SDS011;11357;49.990;7.370;2023-04-07T12:58:13;13.43;;;10.13;;
22378;SDS011;11357;49.990;7.370;2023-04-07T13:00:39;14.27;;;8.63;;
22378;SDS011;11357;49.990;7.370;2023-04-07T13:03:05;9.87;;;7.13;;
22378;SDS011;11357;49.990;7.370;2023-04-07T13:05:31;11.90;;;7.17;;
22378;SDS011;11357;49.990;7.370;2023-04-07T13:07:58;10.13;;;7.30;;
22378;SDS011;11357;49.990;7.370;2023-04-07T13:10:23;10.17;;;7.70;;
22378;SDS011;11357;49.990;7.370;2023-04-07T13:12:49;13.43;;;6.93;;
22378;SDS011;11357;49.990;7.370;2023-04-07T13:15:15;7.80;;;6.03;;
22378;SDS011;11357;49.990;7.370;2023-04-07T13:17:40;9.77;;;7.30;;
22378;SDS011;11357;49.990;7.370;2023-04-07T13:20:06;9.70;;;6.60;;
22378;SDS011;11357;49.990;7.370;2023-04-07T13:22:32;10.97;;;7.00;;
22378;SDS011;11357;49.990;7.370;2023-04-07T13:24:58;11.33;;;7.30;;
22378;SDS011;11357;49.990;7.370;2023-04-07T13:27:23;11.67;;;7.03;;
22378;SDS011;11357;49.990;7.370;2023-04-07T13:29:49;9.93;;;7.13;;
22378;SDS011;11357;49.990;7.370;2023-04-07T13:32:15;9.33;;;6.37;;
22378;SDS011;11357;49.990;7.370;2023-04-07T13:34:41;8.97;;;4.87;;
22378;SDS011;11357;49.990;7.370;2023-04-07T13:37:07;8.13;;;4.10;;
22378;SDS011;11357;49.990;7.370;2023-04-07T13:39:33;7.73;;;5.47;;
22378;SDS011;11357;49.990;7.370;2023-04-07T13:41:59;9.83;;;5.90;;
22378;SDS011;11357;49.990;7.370;2023-04-07T13:44:25;9.47;;;5.67;;
22378;SDS011;11357;49.990;7.370;2023-04-07T13:46:52;12.53;;;6.20;;
22378;SDS011;11357;49.990;7.370;2023-04-07T13:49:19;8.53;;;5.27;;
22378;SDS011;11357;49.990;7.370;2023-04-07T13:51:45;9.90;;;5.80;;
22378;SDS011;11357;49.990;7.370;2023-04-07T13:54:10;5.07;;;3.63;;
22378;SDS011;11357;49.990;7.370;2023-04-07T13:56:36;6.00;;;3.77;;
22378;SDS011;11357;49.990;7.370;2023-04-07T13:59:05;4.87;;;3.70;;
22378;SDS011;11357;49.990;7.370;2023-04-07T14:01:31;7.97;;;4.30;;
22378;SDS011;11357;49.990;7.370;2023-04-07T14:03:59;9.37;;;4.80;;
22378;SDS011;11357;49.990;7.370;2023-04-07T14:06:25;6.53;;;4.17;;
22378;SDS011;11357;49.990;7.370;2023-04-07T14:08:51;7.17;;;4.87;;
22378;SDS011;11357;49.990;7.370;2023-04-07T14:11:20;9.80;;;4.63;;
22378;SDS011;11357;49.990;7.370;2023-04-07T14:13:48;9.90;;;4.80;;
22378;SDS011;11357;49.990;7.370;2023-04-07T14:16:15;6.73;;;4.87;;
22378;SDS011;11357;49.990;7.370;2023-04-07T14:18:42;6.90;;;4.43;;
22378;SDS011;11357;49.990;7.370;2023-04-07T14:21:08;6.17;;;4.10;;
22378;SDS011;11357;49.990;7.370;2023-04-07T14:23:34;8.00;;;5.57;;
22378;SDS011;11357;49.990;7.370;2023-04-07T14:25:59;8.53;;;4.60;;
22378;SDS011;11357;49.990;7.370;2023-04-07T14:28:26;7.30;;;4.83;;
22378;SDS011;11357;49.990;7.370;2023-04-07T14:30:52;11.93;;;9.80;;